Time;durP1;ratioP1;P1;durP2;ratioP2;P2;SDS_P1;SDS_P2;PMS_P1;PMS_P2;Temp;Humidity;BMP_temperature;BMP_pressure;BME280_temperature;BME280_humidity;BME280_pressure;Samples;Min_cycle;Max_cycle;Signal;HPM_P1;HPM_P2
2022/07/13 00:00:16;;;;;;;19.80;14.05;;;;;;;;;;5062505;27;95352;-74
2022/07/13 00:02:42;;;;;;;27.67;14.45;;;;;;;;;;5039619;27;96738;-74
2022/07/13 00:05:09;;;;;;;20.58;14.48;;;;;;;;;;5065848;27;97271;-74
2022/07/13 00:07:35;;;;;;;21.05;14.82;;;;;;;;;;5061188;27;96977;-74
2022/07/13 00:10:03;;;;;;;22.48;14.57;;;;;;;;;;5066986;27;96898;-75
2022/07/13 00:12:29;;;;;;;20.88;14.18;;;;;;;;;;5058653;27;97743;-74
2022/07/13 00:14:55;;;;;;;21.95;14.80;;;;;;;;;;5065548;27;96791;-75
2022/07/13 00:17:22;;;;;;;19.90;13.70;;;;;;;;;;5061804;27;98534;-74
2022/07/13 00:19:48;;;;;;;20.10;14.43;;;;;;;;;;5064528;27;95357;-74
2022/07/13 00:22:14;;;;;;;20.08;14.00;;;;;;;;;;5071133;27;96940;-74
2022/07/13 00:24:41;;;;;;;20.40;14.07;;;;;;;;;;5056391;27;97354;-75
2022/07/13 00:27:07;;;;;;;21.23;13.32;;;;;;;;;;5061488;27;95236;-74
2022/07/13 00:29:33;;;;;;;18.20;12.77;;;;;;;;;;5064098;27;97132;-74
2022/07/13 00:32:00;;;;;;;21.10;13.57;;;;;;;;;;5069710;27;97245;-75
2022/07/13 00:34:26;;;;;;;22.13;13.55;;;;;;;;;;5058704;27;95366;-74
2022/07/13 00:36:53;;;;;;;17.83;12.73;;;;;;;;;;5064949;27;96281;-74
2022/07/13 00:39:19;;;;;;;25.02;13.60;;;;;;;;;;5043412;27;95382;-74
2022/07/13 00:41:48;;;;;;;18.63;12.57;;;;;;;;;;5068926;27;96826;-74
2022/07/13 00:44:16;;;;;;;15.70;12.02;;;;;;;;;;5055277;27;96634;-74
2022/07/13 00:46:47;;;;;;;18.80;12.52;;;;;;;;;;5064718;27;97557;-73
2022/07/13 00:49:13;;;;;;;22.37;11.80;;;;;;;;;;5062285;27;95923;-73
2022/07/13 00:51:40;;;;;;;27.98;12.68;;;;;;;;;;5046314;27;97416;-74
2022/07/13 00:54:06;;;;;;;16.73;11.93;;;;;;;;;;5074472;27;95321;-74
2022/07/13 00:56:33;;;;;;;17.35;11.50;;;;;;;;;;5060153;27;97581;-73
2022/07/13 00:59:04;;;;;;;19.67;10.38;;;;;;;;;;5068166;27;95404;-72
2022/07/13 01:01:31;;;;;;;17.08;10.90;;;;;;;;;;5059454;27;96857;-73
2022/07/13 01:03:57;;;;;;;14.88;10.65;;;;;;;;;;5066980;27;97324;-72
2022/07/13 01:06:23;;;;;;;17.08;10.27;;;;;;;;;;5061407;27;95310;-73
2022/07/13 01:08:50;;;;;;;19.52;10.52;;;;;;;;;;5065855;27;96788;-73
2022/07/13 01:11:16;;;;;;;16.75;10.45;;;;;;;;;;5062635;27;97388;-73
2022/07/13 01:13:44;;;;;;;16.70;9.30;;;;;;;;;;5063700;27;97050;-74
2022/07/13 01:16:14;;;;;;;13.32;10.65;;;;;;;;;;5057018;27;96220;-73
2022/07/13 01:18:41;;;;;;;13.30;9.90;;;;;;;;;;5065505;27;95348;-73
2022/07/13 01:21:07;;;;;;;17.23;10.20;;;;;;;;;;5056832;27;96749;-74
2022/07/13 01:23:34;;;;;;;18.35;9.63;;;;;;;;;;5062139;27;97302;-73
2022/07/13 01:26:01;;;;;;;19.65;10.45;;;;;;;;;;5068088;27;95822;-73
2022/07/13 01:28:27;;;;;;;14.80;10.85;;;;;;;;;;5072172;27;97095;-73
2022/07/13 01:30:54;;;;;;;21.85;10.63;;;;;;;;;;5072530;27;97618;-74
2022/07/13 01:33:20;;;;;;;15.55;10.07;;;;;;;;;;5065294;27;96372;-73
2022/07/13 01:35:46;;;;;;;13.07;10.05;;;;;;;;;;5067940;27;96872;-74
2022/07/13 01:38:13;;;;;;;13.45;10.07;;;;;;;;;;5067050;27;97218;-73
2022/07/13 01:40:41;;;;;;;15.05;9.57;;;;;;;;;;5057950;27;96858;-73
2022/07/13 01:43:08;;;;;;;14.02;10.68;;;;;;;;;;5066617;27;96015;-74
2022/07/13 01:45:36;;;;;;;16.90;10.23;;;;;;;;;;5064557;27;96170;-74
2022/07/13 01:48:02;;;;;;;13.68;9.85;;;;;;;;;;5059540;27;96764;-73
2022/07/13 01:50:28;;;;;;;16.05;9.80;;;;;;;;;;5038132;27;95397;-73
2022/07/13 01:52:55;;;;;;;12.55;9.02;;;;;;;;;;5071532;27;95592;-73
2022/07/13 01:55:22;;;;;;;12.77;9.63;;;;;;;;;;5064104;27;95914;-73
2022/07/13 01:57:48;;;;;;;16.02;9.82;;;;;;;;;;5067898;27;97322;-73
2022/07/13 02:00:16;;;;;;;13.32;9.48;;;;;;;;;;5059330;27;96310;-73
2022/07/13 02:02:43;;;;;;;13.07;9.20;;;;;;;;;;5070501;27;96150;-73
2022/07/13 02:05:10;;;;;;;15.75;10.27;;;;;;;;;;5062228;27;96163;-73
2022/07/13 02:07:36;;;;;;;17.42;9.82;;;;;;;;;;5060823;27;97088;-74
2022/07/13 02:10:07;;;;;;;15.18;10.45;;;;;;;;;;5071883;27;96630;-72
2022/07/13 02:12:34;;;;;;;15.77;10.00;;;;;;;;;;5068068;27;95365;-73
2022/07/13 02:15:01;;;;;;;13.77;9.02;;;;;;;;;;5061334;27;96841;-72
2022/07/13 02:17:27;;;;;;;13.70;9.38;;;;;;;;;;5063442;27;96662;-74
2022/07/13 02:19:53;;;;;;;15.82;9.57;;;;;;;;;;5066146;27;95315;-74
2022/07/13 02:22:20;;;;;;;13.45;9.52;;;;;;;;;;5072200;27;97387;-74
2022/07/13 02:24:46;;;;;;;16.50;10.13;;;;;;;;;;5059071;27;95229;-74
2022/07/13 02:27:13;;;;;;;15.25;9.52;;;;;;;;;;5061706;27;97041;-74
2022/07/13 02:29:44;;;;;;;17.05;9.98;;;;;;;;;;5061565;27;96260;-74
2022/07/13 02:32:11;;;;;;;21.73;10.60;;;;;;;;;;5054123;27;95372;-74
2022/07/13 02:34:37;;;;;;;16.65;10.40;;;;;;;;;;5039682;27;96912;-74
2022/07/13 02:37:03;;;;;;;18.35;11.05;;;;;;;;;;5066589;27;97287;-74
2022/07/13 02:39:30;;;;;;;15.45;11.07;;;;;;;;;;5061749;27;96326;-74
2022/07/13 02:41:56;;;;;;;15.75;11.00;;;;;;;;;;5067309;27;97188;-74
2022/07/13 02:44:23;;;;;;;15.77;11.68;;;;;;;;;;5070892;27;97611;-74
2022/07/13 02:46:49;;;;;;;19.00;11.45;;;;;;;;;;5063426;27;96782;-74
2022/07/13 02:49:15;;;;;;;17.17;11.48;;;;;;;;;;5061875;27;97343;-74
2022/07/13 02:51:42;;;;;;;18.35;12.07;;;;;;;;;;5066765;27;95562;-74
2022/07/13 02:54:08;;;;;;;20.55;12.00;;;;;;;;;;5073107;27;96813;-74
2022/07/13 02:56:35;;;;;;;17.75;11.85;;;;;;;;;;5056862;27;97256;-74
2022/07/13 02:59:01;;;;;;;20.05;12.48;;;;;;;;;;5066654;27;95266;-74
2022/07/13 03:01:27;;;;;;;15.60;11.40;;;;;;;;;;5053511;27;96698;-74
2022/07/13 03:03:54;;;;;;;21.75;11.93;;;;;;;;;;5053206;27;97203;-74
2022/07/13 03:06:20;;;;;;;17.88;12.90;;;;;;;;;;5056271;27;96779;-74
2022/07/13 03:08:47;;;;;;;19.73;12.40;;;;;;;;;;5068211;27;97338;-74
2022/07/13 03:11:13;;;;;;;20.75;12.57;;;;;;;;;;5064315;27;95300;-74
2022/07/13 03:13:39;;;;;;;18.17;12.05;;;;;;;;;;5056900;27;96534;-73
2022/07/13 03:16:06;;;;;;;20.98;12.18;;;;;;;;;;5068785;27;97347;-73
2022/07/13 03:18:33;;;;;;;18.75;11.85;;;;;;;;;;5056716;27;95172;-73
2022/07/13 03:21:00;;;;;;;17.17;12.57;;;;;;;;;;5066863;27;97162;-73
2022/07/13 03:23:26;;;;;;;16.13;12.48;;;;;;;;;;5062739;27;97207;-74
2022/07/13 03:25:52;;;;;;;22.92;13.65;;;;;;;;;;5070849;27;95325;-73
2022/07/13 03:28:19;;;;;;;20.10;13.52;;;;;;;;;;5063098;27;97721;-74
2022/07/13 03:30:45;;;;;;;20.90;12.57;;;;;;;;;;5067573;27;96370;-73
2022/07/13 03:33:12;;;;;;;19.98;13.43;;;;;;;;;;5064294;27;95800;-75
2022/07/13 03:35:38;;;;;;;19.13;13.18;;;;;;;;;;5060414;27;97339;-74
2022/07/13 03:38:04;;;;;;;20.90;13.73;;;;;;;;;;5057354;27;95442;-74
2022/07/13 03:40:31;;;;;;;26.30;13.27;;;;;;;;;;5069298;27;97145;-75
2022/07/13 03:42:57;;;;;;;17.65;11.82;;;;;;;;;;5065935;27;97312;-74
2022/07/13 03:45:23;;;;;;;19.95;13.65;;;;;;;;;;5061026;27;95312;-74
2022/07/13 03:47:50;;;;;;;17.27;12.13;;;;;;;;;;5065903;27;96693;-75
2022/07/13 20:06:59;;;;;;;9.20;2.10;;;;;;;;;;5121315;27;95425;-74
2022/07/13 20:09:25;;;;;;;12.82;2.08;;;;;;;;;;5109535;27;97341;-74
2022/07/13 20:11:52;;;;;;;10.93;2.70;;;;;;;;;;5108422;27;95295;-73
2022/07/13 20:14:18;;;;;;;10.48;2.50;;;;;;;;;;5108031;27;97034;-73
2022/07/13 20:16:44;;;;;;;19.20;2.45;;;;;;;;;;5104392;27;97354;-75
2022/07/13 20:19:11;;;;;;;18.85;3.33;;;;;;;;;;5107453;27;95151;-73
2022/07/13 20:21:37;;;;;;;20.05;4.45;;;;;;;;;;5109003;27;97037;-72
2022/07/13 20:24:04;;;;;;;17.80;4.07;;;;;;;;;;5096332;27;96305;-73
2022/07/13 20:26:30;;;;;;;18.58;3.40;;;;;;;;;;5112190;27;95687;-73
2022/07/13 20:28:56;;;;;;;15.77;2.88;;;;;;;;;;5108058;27;97279;-73
2022/07/13 20:31:23;;;;;;;11.93;2.42;;;;;;;;;;5106967;27;97495;-73
2022/07/13 20:33:52;;;;;;;14.13;2.47;;;;;;;;;;5109660;27;96798;-73
2022/07/13 20:36:19;;;;;;;15.52;2.83;;;;;;;;;;5107079;27;97974;-73
2022/07/13 20:38:47;;;;;;;16.70;3.13;;;;;;;;;;5102456;27;95218;-73
2022/07/13 20:41:13;;;;;;;24.95;7.53;;;;;;;;;;5108862;27;95912;-73
2022/07/13 20:43:40;;;;;;;14.43;3.30;;;;;;;;;;5091999;27;97605;-73
2022/07/13 20:46:06;;;;;;;15.60;3.92;;;;;;;;;;5103751;27;95762;-73
2022/07/13 20:48:33;;;;;;;10.63;2.88;;;;;;;;;;5111292;27;96754;-73
2022/07/13 20:50:59;;;;;;;9.23;2.38;;;;;;;;;;5108149;27;95269;-73
2022/07/13 20:53:26;;;;;;;17.35;4.55;;;;;;;;;;5106024;27;97118;-73
2022/07/13 20:55:52;;;;;;;13.68;2.95;;;;;;;;;;5106449;27;97342;-73
2022/07/13 20:58:19;;;;;;;15.23;3.20;;;;;;;;;;5108514;27;95250;-73
2022/07/13 21:00:45;;;;;;;18.02;5.40;;;;;;;;;;5082185;27;96708;-73
2022/07/13 21:03:13;;;;;;;15.25;2.90;;;;;;;;;;5095782;27;96661;-73
2022/07/13 21:05:41;;;;;;;15.68;3.58;;;;;;;;;;5103935;27;95458;-73
2022/07/13 21:08:07;;;;;;;15.80;3.10;;;;;;;;;;5107171;27;97395;-73
2022/07/13 21:10:33;;;;;;;10.52;2.70;;;;;;;;;;5109125;27;96312;-72
2022/07/13 21:13:00;;;;;;;13.60;3.60;;;;;;;;;;5107975;27;97129;-74
2022/07/13 21:15:26;;;;;;;14.45;3.33;;;;;;;;;;5104590;27;97334;-74
2022/07/13 21:17:53;;;;;;;14.32;3.60;;;;;;;;;;5095466;27;95244;-73
2022/07/13 21:20:19;;;;;;;15.75;3.35;;;;;;;;;;5088639;27;97095;-72
2022/07/13 21:22:56;;;;;;;11.45;2.65;;;;;;;;;;5087872;27;96585;-73
2022/07/13 21:28:38;;;;;;;13.20;2.33;;;;;;;;;;5010518;28;96226;-73
2022/07/13 21:31:04;;;;;;;6.53;1.90;;;;;;;;;;5085429;27;99568;-74
2022/07/13 21:33:32;;;;;;;11.00;2.30;;;;;;;;;;5098763;27;95074;-74
2022/07/13 21:35:58;;;;;;;13.20;2.38;;;;;;;;;;5092253;27;96471;-73
2022/07/13 21:38:24;;;;;;;11.75;2.17;;;;;;;;;;5091374;27;95398;-74
2022/07/13 21:40:51;;;;;;;15.90;2.55;;;;;;;;;;5079551;27;96200;-74
2022/07/13 21:43:17;;;;;;;10.02;2.17;;;;;;;;;;5093884;27;97499;-74
2022/07/13 21:45:44;;;;;;;9.20;2.30;;;;;;;;;;5091501;27;95789;-74
2022/07/13 21:48:11;;;;;;;12.27;2.50;;;;;;;;;;5094975;27;96804;-74
2022/07/13 21:50:41;;;;;;;8.93;2.30;;;;;;;;;;5090797;27;97342;-75
2022/07/13 21:53:34;;;;;;;15.88;2.35;;;;;;;;;;5090003;27;96334;-73
2022/07/13 21:56:06;;;;;;;10.88;2.03;;;;;;;;;;5069112;27;96892;-73
2022/07/13 21:58:36;;;;;;;12.93;2.63;;;;;;;;;;5095491;27;95275;-73
2022/07/13 22:01:03;;;;;;;12.55;2.53;;;;;;;;;;5076046;27;96266;-73
2022/07/13 22:03:32;;;;;;;11.27;2.65;;;;;;;;;;5089044;27;96834;-73
2022/07/13 22:06:05;;;;;;;9.10;2.10;;;;;;;;;;5091614;27;95630;-74
2022/07/13 22:08:34;;;;;;;12.80;2.20;;;;;;;;;;5081594;27;96733;-74
2022/07/13 22:11:25;;;;;;;10.07;2.13;;;;;;;;;;5074984;27;96243;-74
2022/07/13 22:14:10;;;;;;;9.80;2.20;;;;;;;;;;5087317;27;96045;-74
2022/07/13 22:16:55;;;;;;;12.38;2.33;;;;;;;;;;5066139;27;95970;-73
2022/07/13 22:19:40;;;;;;;10.05;2.20;;;;;;;;;;5078760;27;95155;-72
2022/07/13 22:22:25;;;;;;;9.30;2.20;;;;;;;;;;5093327;27;96617;-73
2022/07/13 22:25:10;;;;;;;8.52;1.70;;;;;;;;;;5091852;27;97363;-73
2022/07/13 22:27:55;;;;;;;15.15;1.90;;;;;;;;;;5085813;27;95319;-73
2022/07/13 22:30:40;;;;;;;10.43;2.35;;;;;;;;;;5095146;27;97181;-73
2022/07/13 22:33:25;;;;;;;13.63;2.50;;;;;;;;;;5082911;27;96641;-73
2022/07/13 22:36:11;;;;;;;16.83;2.78;;;;;;;;;;5089837;27;95181;-73
2022/07/13 22:38:56;;;;;;;13.82;2.10;;;;;;;;;;5077142;27;96668;-73
2022/07/13 22:41:41;;;;;;;14.20;2.60;;;;;;;;;;5079098;27;97267;-73
2022/07/13 22:44:26;;;;;;;15.07;2.55;;;;;;;;;;5085467;27;96819;-73
2022/07/13 22:47:12;;;;;;;13.52;2.63;;;;;;;;;;5094130;27;98937;-74
2022/07/13 22:49:57;;;;;;;8.80;2.22;;;;;;;;;;5077877;27;95972;-74
2022/07/13 22:52:42;;;;;;;21.30;2.63;;;;;;;;;;5094347;27;96817;-74
2022/07/13 22:55:27;;;;;;;17.30;2.50;;;;;;;;;;5077038;27;95313;-74
2022/07/13 22:58:12;;;;;;;13.18;2.40;;;;;;;;;;5085540;27;95202;-74
2022/07/13 23:00:57;;;;;;;10.98;2.50;;;;;;;;;;5094877;27;96870;-74
2022/07/13 23:03:42;;;;;;;9.13;2.22;;;;;;;;;;5091138;27;97241;-74
2022/07/13 23:06:27;;;;;;;12.65;2.45;;;;;;;;;;5096926;27;97342;-74
2022/07/13 23:09:12;;;;;;;12.63;2.38;;;;;;;;;;5093537;27;97604;-74
2022/07/13 23:11:57;;;;;;;8.25;2.20;;;;;;;;;;5087371;27;96019;-73
2022/07/13 23:14:42;;;;;;;11.77;2.25;;;;;;;;;;5091003;27;96802;-74
2022/07/13 23:17:28;;;;;;;10.60;2.75;;;;;;;;;;5091063;27;97406;-74
2022/07/13 23:20:13;;;;;;;12.82;2.50;;;;;;;;;;5094802;27;95196;-73
2022/07/13 23:22:58;;;;;;;10.35;2.30;;;;;;;;;;5093360;27;96574;-74
2022/07/13 23:25:43;;;;;;;7.90;2.15;;;;;;;;;;5076436;27;97349;-74
2022/07/13 23:28:09;;;;;;;11.80;2.80;;;;;;;;;;5090842;27;95283;-73
2022/07/13 23:30:45;;;;;;;8.70;2.53;;;;;;;;;;5078881;27;96448;-74
2022/07/13 23:33:11;;;;;;;9.73;2.33;;;;;;;;;;5093612;27;95057;-74
2022/07/13 23:35:38;;;;;;;19.92;2.92;;;;;;;;;;5090136;27;96795;-73
2022/07/13 23:38:04;;;;;;;9.45;2.80;;;;;;;;;;5091125;27;97587;-74
2022/07/13 23:40:31;;;;;;;11.85;2.53;;;;;;;;;;5092821;27;95243;-73
2022/07/13 23:42:58;;;;;;;10.48;2.63;;;;;;;;;;5090694;27;97116;-73
2022/07/13 23:45:28;;;;;;;13.27;2.70;;;;;;;;;;5070201;27;97842;-73
2022/07/13 23:47:54;;;;;;;12.68;2.70;;;;;;;;;;5092083;27;97593;-74
2022/07/13 23:50:20;;;;;;;13.63;3.00;;;;;;;;;;5091366;27;96785;-73
2022/07/13 23:52:47;;;;;;;8.70;2.53;;;;;;;;;;5096834;27;97372;-74
2022/07/13 23:55:14;;;;;;;9.98;2.70;;;;;;;;;;5076920;27;96329;-74
2022/07/13 23:57:41;;;;;;;10.15;2.63;;;;;;;;;;5088368;27;97350;-73
